Time;durP1;ratioP1;P1;durP2;ratioP2;P2;SDS_P1;SDS_P2;PMS_P1;PMS_P2;Temp;Humidity;BMP_temperature;BMP_pressure;BME280_temperature;BME280_humidity;BME280_pressure;Samples;Min_cycle;Max_cycle;Signal;HPM_P1;HPM_P2
2022/10/14 00:00:08;;;;;;;50.28;31.05;;;;;;;10.32;85.68;100666.23;3706767;77;99060;-89
2022/10/14 00:05:10;;;;;;;53.75;31.55;;;;;;;10.15;85.59;100643.38;3697897;78;32893;-89
2022/10/14 00:10:10;;;;;;;58.13;33.60;;;;;;;10.25;85.97;100660.03;3599484;79;98833;-89
2022/10/14 00:15:11;;;;;;;55.00;32.30;;;;;;;10.23;86.06;100651.36;3607379;80;31741;-89
2022/10/14 00:20:12;;;;;;;52.37;31.93;;;;;;;10.21;86.22;100651.52;3640353;79;98385;-89
2022/10/14 00:25:13;;;;;;;50.27;32.47;;;;;;;10.18;86.25;100659.93;3696048;78;31607;-89
2022/10/14 00:30:14;;;;;;;49.27;30.73;;;;;;;10.15;86.42;100662.62;3709793;79;99211;-89
2022/10/14 00:35:15;;;;;;;52.07;31.37;;;;;;;10.12;86.48;100654.53;3695195;78;31649;-89
2022/10/14 00:40:15;;;;;;;57.23;34.83;;;;;;;10.10;86.59;100643.68;3684252;78;98611;-89
2022/10/14 00:45:21;;;;;;;53.25;31.12;;;;;;;10.04;86.77;100640.44;3705569;79;31647;-89
2022/10/14 00:50:22;;;;;;;54.45;31.73;;;;;;;10.00;86.91;100634.64;3681576;79;98423;-89
2022/10/14 00:55:23;;;;;;;53.77;33.40;;;;;;;9.97;87.08;100627.92;3679098;79;25860;-89
2022/10/14 01:00:24;;;;;;;54.90;31.07;;;;;;;9.96;87.13;100640.09;3694252;79;98700;-89
2022/10/14 01:05:32;;;;;;;53.70;31.30;;;;;;;9.94;87.35;100635.55;3602784;81;34869;-89
2022/10/14 01:11:10;;;;;;;53.08;31.52;;;;;;;9.88;87.47;100635.61;3607436;80;98586;-89
2022/10/14 01:16:23;;;;;;;51.25;31.37;;;;;;;9.85;87.66;100631.44;3604729;81;98969;-88
2022/10/14 01:21:45;;;;;;;53.28;31.65;;;;;;;9.78;87.86;100628.57;3616945;81;30230;-88
2022/10/14 01:27:35;;;;;;;52.88;31.65;;;;;;;9.76;87.73;100633.05;3593878;81;98732;-88
2022/10/14 01:33:08;;;;;;;57.50;32.45;;;;;;;9.72;87.85;100637.72;3600548;81;31948;-88
2022/10/14 01:38:19;;;;;;;59.00;33.60;;;;;;;9.68;88.08;100634.10;3568021;81;98795;-88
2022/10/14 01:43:25;;;;;;;54.75;35.00;;;;;;;9.64;88.17;100628.31;3544831;82;31605;-88
2022/10/14 01:48:31;;;;;;;57.03;32.65;;;;;;;9.65;88.43;100625.80;3485838;82;98697;-88
2022/10/14 01:53:37;;;;;;;58.60;33.98;;;;;;;9.68;88.60;100623.67;3550775;82;25992;-88
2022/10/14 01:58:40;;;;;;;50.35;31.82;;;;;;;9.70;88.64;100607.04;3525379;82;98656;-88
2022/10/14 02:03:44;;;;;;;56.65;31.95;;;;;;;9.69;88.48;100605.45;3543596;82;31762;-88
2022/10/14 02:09:23;;;;;;;55.75;31.10;;;;;;;9.71;88.63;100612.74;3584198;81;98720;-88
2022/10/14 02:14:35;;;;;;;53.28;30.90;;;;;;;9.74;88.63;100618.09;3629631;79;29753;-88
2022/10/14 02:20:03;;;;;;;52.23;31.30;;;;;;;9.75;88.95;100623.83;3625908;80;98420;-87
2022/10/14 02:25:26;;;;;;;53.52;30.45;;;;;;;9.75;89.27;100623.83;3617747;80;31331;-88
2022/10/14 02:30:32;;;;;;;49.25;28.30;;;;;;;9.76;89.45;100612.44;3622185;79;98270;-88
2022/10/14 02:35:35;;;;;;;48.63;28.32;;;;;;;9.78;89.31;100612.89;3619585;80;32427;-88
2022/10/14 02:40:46;;;;;;;49.75;29.00;;;;;;;9.79;89.58;100606.22;3606325;81;98307;-89
2022/10/14 02:45:47;;;;;;;49.48;28.95;;;;;;;9.80;89.54;100592.69;3613287;80;31645;-88
2022/10/14 02:50:48;;;;;;;49.70;31.00;;;;;;;9.78;89.48;100589.52;3612920;80;98894;-87
2022/10/14 02:55:49;;;;;;;45.20;27.87;;;;;;;9.79;89.31;100597.17;3626315;80;26028;-87
2022/10/14 03:00:51;;;;;;;51.07;28.87;;;;;;;9.75;89.56;100579.25;3612904;80;98939;-88
2022/10/14 03:05:52;;;;;;;54.13;29.83;;;;;;;9.73;89.48;100574.71;3624844;80;26552;-89
2022/10/14 03:10:56;;;;;;;43.47;27.27;;;;;;;9.67;89.56;100576.75;3600789;81;98596;-89
2022/10/14 03:15:58;;;;;;;52.43;29.25;;;;;;;9.58;89.31;100575.63;3645865;79;31618;-89
2022/10/14 03:20:58;;;;;;;43.83;27.30;;;;;;;9.54;89.58;100575.36;3610708;80;98168;-89
2022/10/14 03:25:59;;;;;;;48.93;29.93;;;;;;;9.50;89.57;100574.50;3647228;81;25848;-89
2022/10/14 03:31:00;;;;;;;48.47;29.87;;;;;;;9.44;89.40;100591.84;3653297;79;98915;-89
2022/10/14 03:36:01;;;;;;;50.60;30.77;;;;;;;9.37;89.67;100583.48;3659465;79;35395;-89
2022/10/14 03:41:01;;;;;;;49.60;30.53;;;;;;;9.31;89.91;100582.77;3635761;79;98506;-89
2022/10/14 03:46:03;;;;;;;45.00;28.37;;;;;;;9.27;89.99;100592.32;3643319;80;35387;-89
2022/10/14 03:51:03;;;;;;;54.30;29.03;;;;;;;9.25;90.12;100594.65;3603717;79;98222;-89
2022/10/14 03:56:05;;;;;;;49.33;29.12;;;;;;;9.19;89.91;100591.98;3626122;80;35522;-89
2022/10/14 04:01:06;;;;;;;51.18;30.00;;;;;;;9.14;90.04;100601.89;3601779;80;35370;-89
2022/10/14 04:06:06;;;;;;;55.80;32.50;;;;;;;9.12;90.32;100596.55;3615836;79;98510;-88
2022/10/14 04:11:08;;;;;;;49.23;28.55;;;;;;;9.11;90.52;100597.70;3653283;79;34472;-89
2022/10/14 04:16:10;;;;;;;51.20;28.77;;;;;;;9.10;90.36;100587.29;3676630;79;99265;-88
2022/10/14 04:21:11;;;;;;;52.13;29.93;;;;;;;9.09;90.52;100587.64;3674842;79;26087;-90
2022/10/14 04:26:12;;;;;;;44.70;25.67;;;;;;;9.07;90.70;100577.61;3675620;79;98840;-90
2022/10/14 04:31:13;;;;;;;43.47;27.00;;;;;;;9.06;90.78;100578.19;3673747;79;26665;-89
2022/10/14 04:36:14;;;;;;;47.17;26.13;;;;;;;9.07;90.95;100577.05;3666234;79;99252;-89
2022/10/14 04:41:14;;;;;;;46.17;28.50;;;;;;;9.06;90.99;100563.67;3659401;79;33427;-88
2022/10/14 04:46:15;;;;;;;47.47;26.10;;;;;;;9.06;91.14;100560.94;3653200;79;98539;-88
2022/10/14 04:51:16;;;;;;;48.00;27.63;;;;;;;9.05;90.98;100566.22;3656484;79;32513;-88
2022/10/14 04:56:17;;;;;;;46.30;27.35;;;;;;;9.05;91.11;100564.25;3683914;79;98776;-87
2022/10/14 05:01:18;;;;;;;41.73;25.83;;;;;;;9.03;91.20;100559.70;3669535;79;28148;-88
2022/10/14 05:06:18;;;;;;;44.40;27.33;;;;;;;9.03;91.27;100567.14;3672002;79;98864;-88
2022/10/14 05:11:19;;;;;;;45.70;28.33;;;;;;;9.02;91.38;100567.73;3670680;79;26395;-88
2022/10/14 05:16:20;;;;;;;48.80;29.03;;;;;;;9.01;91.47;100571.64;3654559;78;98633;-87
2022/10/14 05:21:21;;;;;;;43.87;28.17;;;;;;;8.99;91.51;100565.70;3613878;80;25786;-88
2022/10/14 05:26:22;;;;;;;52.10;28.20;;;;;;;8.98;91.43;100568.80;3596487;80;98459;-88
2022/10/14 05:31:22;;;;;;;45.20;27.23;;;;;;;8.97;91.61;100566.66;3543766;83;26486;-88
2022/10/14 05:36:23;;;;;;;45.43;26.85;;;;;;;8.97;91.72;100566.66;3541495;81;98539;-89
2022/10/14 05:41:25;;;;;;;51.30;29.23;;;;;;;8.98;91.82;100561.38;3568110;81;33990;-88
2022/10/14 05:46:26;;;;;;;50.70;27.55;;;;;;;8.99;92.00;100555.31;3562175;80;98583;-88
2022/10/14 05:56:42;;;;;;;50.03;28.13;;;;;;;9.06;92.75;100560.94;3787907;74;25937;-88
2022/10/14 06:01:43;;;;;;;46.10;27.87;;;;;;;9.00;92.43;100561.79;3692866;78;26659;-88
2022/10/14 06:06:44;;;;;;;45.00;26.73;;;;;;;9.02;92.37;100569.67;3678817;77;99027;-89
2022/10/14 06:11:45;;;;;;;47.57;28.27;;;;;;;9.03;92.34;100570.69;3684077;78;25853;-89
2022/10/14 06:16:50;;;;;;;47.70;28.13;;;;;;;9.05;92.28;100570.33;3686448;78;98742;-88
2022/10/14 06:21:51;;;;;;;51.33;31.17;;;;;;;9.07;93.25;100568.01;3690002;78;25847;-89
2022/10/14 06:26:52;;;;;;;51.83;31.20;;;;;;;9.12;93.43;100575.39;3688296;79;98510;-88
2022/10/14 06:31:53;;;;;;;53.17;32.50;;;;;;;9.18;94.29;100575.30;3701795;78;35535;-88
2022/10/14 06:36:53;;;;;;;53.80;30.53;;;;;;;9.25;94.47;100565.81;3744284;77;98834;-88
2022/10/14 06:41:54;;;;;;;49.40;30.77;;;;;;;9.36;95.50;100572.86;3773705;78;34957;-89
2022/10/14 06:46:55;;;;;;;54.93;31.75;;;;;;;9.46;95.60;100578.56;3756214;77;98983;-88
2022/10/14 06:51:58;;;;;;;49.93;29.17;;;;;;;9.56;95.68;100568.34;3759443;76;34918;-89
2022/10/14 06:56:59;;;;;;;55.57;32.07;;;;;;;9.66;96.15;100558.69;3736785;77;98882;-89
2022/10/14 07:01:59;;;;;;;52.47;30.97;;;;;;;9.79;96.22;100569.12;3717446;77;37240;-88
2022/10/14 07:07:01;;;;;;;56.20;31.40;;;;;;;9.92;96.49;100568.34;3720672;78;98576;-89
2022/10/14 07:12:04;;;;;;;51.83;31.33;;;;;;;10.08;96.79;100578.05;3708547;79;35385;-89
2022/10/14 07:17:07;;;;;;;51.30;30.07;;;;;;;10.23;97.11;100571.59;3689963;78;98881;-88
2022/10/14 07:22:08;;;;;;;57.67;33.25;;;;;;;10.38;96.79;100572.02;3595629;81;32141;-88
2022/10/14 07:27:09;;;;;;;57.33;33.83;;;;;;;10.54;97.34;100589.72;3564415;80;98932;-89
2022/10/14 07:32:10;;;;;;;46.30;30.80;;;;;;;10.70;97.67;100580.13;3586828;80;25903;-89
2022/10/14 07:37:11;;;;;;;56.83;31.93;;;;;;;10.84;97.20;100570.65;3578187;80;99526;-91
2022/10/14 07:42:12;;;;;;;52.57;33.17;;;;;;;11.01;97.37;100581.68;3591939;80;25936;-90
2022/10/14 07:47:13;;;;;;;49.90;32.03;;;;;;;11.16;97.24;100582.02;3570472;80;98895;-90
2022/10/14 07:52:14;;;;;;;59.20;32.20;;;;;;;11.27;97.13;100592.00;3565976;82;35949;-92
2022/10/14 07:57:15;;;;;;;54.63;33.30;;;;;;;11.41;96.95;100594.11;3602935;80;99164;-91
2022/10/14 08:02:16;;;;;;;52.47;31.90;;;;;;;11.57;96.72;100598.23;3615469;80;35540;-88
2022/10/14 08:07:17;;;;;;;50.63;32.10;;;;;;;11.74;96.57;100594.88;3619618;79;98883;-89
2022/10/14 08:12:18;;;;;;;46.80;31.75;;;;;;;11.87;96.12;100582.95;3662705;79;34933;-88
2022/10/14 08:17:19;;;;;;;52.43;31.30;;;;;;;11.98;95.85;100584.62;3648829;79;99009;-89
2022/10/14 08:22:20;;;;;;;49.00;31.37;;;;;;;12.12;95.74;100577.84;3665069;79;30964;-88
2022/10/14 08:27:20;;;;;;;49.80;29.97;;;;;;;12.36;96.35;100570.88;3615224;79;99153;-89
2022/10/14 08:32:22;;;;;;;48.10;30.20;;;;;;;12.63;96.39;100579.13;3670038;79;25804;-88
2022/10/14 08:37:23;;;;;;;52.97;29.10;;;;;;;12.97;96.37;100581.89;3654257;79;98654;-86
2022/10/14 08:42:44;;;;;;;40.40;25.33;;;;;;;13.32;95.32;100582.80;3655810;79;25807;-88
2022/10/14 08:47:47;;;;;;;40.10;25.85;;;;;;;13.70;95.16;100575.16;3641487;79;99179;-89
2022/10/14 08:53:17;;;;;;;34.23;23.02;;;;;;;14.27;93.88;100571.19;3652130;79;26367;-90
2022/10/14 08:58:39;;;;;;;45.95;25.75;;;;;;;14.77;92.30;100565.70;3624818;78;98872;-88
2022/10/14 09:03:41;;;;;;;34.53;21.57;;;;;;;15.31;91.45;100566.44;3627368;79;35583;-89
2022/10/14 09:08:49;;;;;;;32.17;22.45;;;;;;;16.05;90.29;100568.11;3614432;78;99042;-88
2022/10/14 09:14:00;;;;;;;34.40;21.70;;;;;;;16.67;87.73;100572.84;3573359;79;26318;-92
2022/10/14 09:19:05;;;;;;;34.20;21.17;;;;;;;17.16;86.15;100576.41;3620100;79;98862;-90
2022/10/14 09:24:23;;;;;;;31.73;20.70;;;;;;;17.53;82.10;100572.14;3633108;79;25899;-89
2022/10/14 09:29:50;;;;;;;31.68;20.12;;;;;;;17.68;81.97;100572.70;3622583;79;98833;-90
2022/10/14 09:34:52;;;;;;;32.67;20.72;;;;;;;18.01;80.33;100578.14;3614489;79;25919;-90
2022/10/14 09:40:00;;;;;;;29.50;18.32;;;;;;;18.47;80.16;100571.16;3626417;78;99080;-89
2022/10/14 09:45:12;;;;;;;31.45;18.82;;;;;;;18.97;79.03;100570.98;3631171;79;25919;-89
2022/10/14 09:50:24;;;;;;;27.35;17.75;;;;;;;19.22;76.90;100569.27;3631907;78;98911;-90
2022/10/14 09:55:25;;;;;;;23.50;14.70;;;;;;;19.44;74.77;100568.97;3630017;79;25896;-87
2022/10/14 10:00:29;;;;;;;24.05;13.93;;;;;;;19.56;73.77;100562.70;3608659;79;98718;-88
2022/10/14 10:05:34;;;;;;;22.13;14.43;;;;;;;19.60;71.46;100567.59;3629281;79;26361;-93
2022/10/14 10:10:34;;;;;;;23.67;14.33;;;;;;;19.41;71.38;100569.81;3617487;79;99121;-94
2022/10/14 10:15:35;;;;;;;28.83;17.27;;;;;;;19.37;71.34;100569.14;3617677;79;35489;-91
2022/10/14 10:20:36;;;;;;;26.00;16.37;;;;;;;19.25;70.64;100567.02;3619603;79;99179;-89
2022/10/14 10:25:37;;;;;;;32.25;15.53;;;;;;;19.04;70.47;100564.66;3607440;79;35457;-91
2022/10/14 10:30:42;;;;;;;24.95;14.93;;;;;;;18.82;70.40;100571.09;3613158;79;98932;-90
2022/10/14 10:36:16;;;;;;;21.80;15.00;;;;;;;18.63;70.21;100567.07;3618342;78;25851;-90
2022/10/14 10:41:53;;;;;;;26.48;14.40;;;;;;;18.40;70.34;100560.16;3620411;80;25836;-89
2022/10/14 10:47:17;;;;;;;27.50;14.38;;;;;;;18.20;70.52;100555.73;3617039;78;99064;-88
2022/10/14 10:52:48;;;;;;;24.45;14.40;;;;;;;18.02;70.68;100556.63;3621138;80;25934;-88
2022/10/14 10:58:18;;;;;;;24.95;14.90;;;;;;;17.96;71.23;100543.81;3617525;79;98876;-89
2022/10/14 11:03:45;;;;;;;24.70;13.53;;;;;;;18.12;71.58;100543.92;3629907;79;26439;-89
2022/10/14 11:14:22;;;;;;;22.48;12.33;;;;;;;18.33;71.11;100531.03;3612862;79;25730;-92
2022/10/14 11:19:49;;;;;;;23.87;14.40;;;;;;;18.28;70.60;100523.73;3620265;79;99003;-90
2022/10/14 11:25:07;;;;;;;24.52;13.15;;;;;;;18.25;70.47;100521.19;3625526;79;34961;-89
2022/10/14 11:30:16;;;;;;;23.27;14.75;;;;;;;18.25;70.33;100509.28;3628590;78;98678;-89
2022/10/14 11:35:54;;;;;;;22.02;13.68;;;;;;;18.36;70.63;100514.07;3635851;79;26386;-91
2022/10/14 11:41:19;;;;;;;25.88;13.13;;;;;;;18.37;69.96;100516.41;3628853;79;98791;-90
2022/10/14 11:46:25;;;;;;;27.50;13.68;;;;;;;18.36;69.83;100514.84;3623905;79;98822;-88
2022/10/14 11:51:35;;;;;;;;;;;;;;;18.21;69.07;100514.89;3634445;79;26512;-90
2022/10/14 11:56:50;;;;;;;29.65;15.23;;;;;;;18.12;69.47;100503.53;3631170;79;84701;-89
2022/10/14 12:01:56;;;;;;;25.50;13.50;;;;;;;18.14;69.72;100494.77;3631542;79;25906;-90
2022/10/14 12:07:11;;;;;;;26.70;14.18;;;;;;;18.14;70.26;100496.16;3630078;79;98954;-93
2022/10/14 12:12:16;;;;;;;25.17;14.60;;;;;;;18.19;69.62;100503.39;3622194;79;26442;-90
2022/10/14 12:17:39;;;;;;;20.48;11.97;;;;;;;18.11;69.68;100490.83;3616434;79;98859;-90
2022/10/14 12:22:40;;;;;;;26.30;15.63;;;;;;;18.16;70.34;100488.91;3615452;79;26132;-89
2022/10/14 12:27:41;;;;;;;28.75;15.50;;;;;;;18.18;69.77;100482.92;3619467;79;99111;-89
2022/10/14 12:33:07;;;;;;;23.83;15.00;;;;;;;18.13;70.11;100487.59;3622445;79;34811;-88
2022/10/14 12:38:11;;;;;;;27.42;16.00;;;;;;;18.04;70.20;100484.59;3623017;79;99327;-90
2022/10/14 12:43:22;;;;;;;28.27;17.15;;;;;;;18.01;70.65;100479.86;3632599;79;25723;-92
2022/10/14 12:48:26;;;;;;;30.55;16.60;;;;;;;18.01;70.61;100480.66;3626123;79;98890;-93
2022/10/14 12:53:31;;;;;;;28.95;16.77;;;;;;;17.93;70.88;100475.65;3638547;79;25835;-94
2022/10/14 12:58:40;;;;;;;29.80;15.93;;;;;;;17.92;71.17;100468.52;3628162;79;99217;-91
2022/10/14 13:03:58;;;;;;;32.20;17.27;;;;;;;17.89;71.19;100468.76;3635090;79;26409;-91
2022/10/14 13:09:16;;;;;;;27.55;14.80;;;;;;;17.82;70.90;100466.08;3627995;79;99340;-89
2022/10/14 13:14:28;;;;;;;23.18;13.80;;;;;;;17.77;71.26;100457.44;3629258;79;34808;-86
2022/10/14 13:19:37;;;;;;;28.80;15.80;;;;;;;17.81;71.41;100462.31;3607130;78;99206;-88
2022/10/14 13:24:40;;;;;;;29.87;17.05;;;;;;;17.82;71.46;100449.38;3611666;80;25836;-87
2022/10/14 13:30:18;;;;;;;32.85;17.48;;;;;;;17.80;71.18;100445.44;3633319;79;98651;-88
2022/10/14 13:35:36;;;;;;;27.87;16.52;;;;;;;17.71;71.32;100449.40;3647400;79;25913;-93
2022/10/14 13:40:53;;;;;;;31.17;19.07;;;;;;;17.67;71.62;100448.66;3640136;79;98653;-87
2022/10/14 13:46:09;;;;;;;34.10;19.40;;;;;;;17.64;71.77;100442.54;3652370;79;25895;-88
2022/10/14 13:51:24;;;;;;;31.70;19.00;;;;;;;17.64;72.09;100445.33;3652012;79;26448;-91
2022/10/14 13:56:29;;;;;;;33.25;18.75;;;;;;;17.59;72.23;100447.20;3653681;79;99288;-89
2022/10/14 14:01:35;;;;;;;33.10;19.65;;;;;;;17.53;72.43;100441.34;3618120;80;25774;-91
2022/10/14 14:06:42;;;;;;;31.68;20.95;;;;;;;17.55;72.72;100431.95;3612387;78;99225;-90
2022/10/14 14:11:46;;;;;;;33.48;20.97;;;;;;;17.57;73.05;100437.10;3686539;78;25844;-90
2022/10/14 14:16:58;;;;;;;35.35;20.70;;;;;;;17.58;72.89;100435.89;3679387;78;99314;-92
2022/10/14 14:22:13;;;;;;;36.90;21.50;;;;;;;17.56;72.83;100438.32;3687638;78;26392;-90
2022/10/14 14:27:23;;;;;;;33.80;21.27;;;;;;;17.48;72.73;100441.02;3672955;78;98945;-89
2022/10/14 14:32:29;;;;;;;36.58;21.30;;;;;;;17.41;72.95;100439.76;3684101;78;34840;-89
2022/10/14 14:37:31;;;;;;;;;;;;;;;17.41;73.14;100435.00;3685448;78;99111;-88
2022/10/14 14:42:42;;;;;;;38.58;22.75;;;;;;;17.35;73.05;100435.27;3681198;78;34909;-88
2022/10/14 14:47:41;;;;;;;35.55;22.77;;;;;;;17.30;73.29;100426.59;3637728;78;99378;-90
2022/10/14 14:52:45;;;;;;;39.03;23.00;;;;;;;17.17;73.57;100433.97;3616194;80;35302;-88
2022/10/14 14:57:51;;;;;;;39.03;23.30;;;;;;;17.09;73.93;100433.29;3576336;80;98928;-88
2022/10/14 15:02:57;;;;;;;34.80;22.20;;;;;;;16.96;74.29;100429.50;3555999;81;35094;-89
2022/10/14 15:07:58;;;;;;;41.95;25.32;;;;;;;16.84;74.74;100429.30;3569611;80;98915;-90
2022/10/14 15:12:59;;;;;;;39.23;25.25;;;;;;;16.72;74.99;100429.85;3602174;80;35478;-88
2022/10/14 15:18:14;;;;;;;36.13;23.52;;;;;;;16.59;75.50;100431.62;3571945;81;99130;-90
2022/10/14 15:23:42;;;;;;;37.67;24.45;;;;;;;16.46;75.94;100430.63;3606362;80;34840;-88
2022/10/14 15:28:42;;;;;;;38.38;24.72;;;;;;;16.37;76.36;100431.69;3612389;79;99214;-89
2022/10/14 15:33:43;;;;;;;43.70;27.13;;;;;;;16.33;76.58;100429.55;3622297;79;33614;-85
2022/10/14 15:38:44;;;;;;;37.65;23.70;;;;;;;16.28;76.94;100432.77;3613335;79;99211;-88
2022/10/14 15:43:45;;;;;;;40.38;23.57;;;;;;;16.26;77.07;100430.44;3627761;79;31009;-87
2022/10/14 15:48:52;;;;;;;39.38;25.35;;;;;;;16.22;77.43;100419.97;3616179;79;99172;-88
2022/10/14 15:53:53;;;;;;;38.92;26.40;;;;;;;16.17;77.63;100423.78;3605249;79;34846;-87
2022/10/14 15:58:54;;;;;;;43.70;27.50;;;;;;;16.15;77.76;100425.61;3591635;79;99530;-88
2022/10/14 16:03:55;;;;;;;44.67;27.93;;;;;;;16.06;78.13;100419.75;3601500;80;29108;-89
2022/10/14 16:08:56;;;;;;;49.70;29.33;;;;;;;16.03;78.39;100419.80;3586881;79;98898;-90
2022/10/14 16:13:56;;;;;;;38.63;23.57;;;;;;;15.93;78.63;100417.33;3583223;81;26726;-87
2022/10/14 16:19:01;;;;;;;44.58;27.05;;;;;;;15.89;78.84;100417.96;3577320;79;98885;-86
2022/10/14 16:24:03;;;;;;;39.08;24.43;;;;;;;15.85;78.98;100419.98;3572324;81;31629;-87
2022/10/14 16:29:03;;;;;;;36.15;22.20;;;;;;;15.77;79.24;100414.33;3581963;79;98766;-86
2022/10/14 16:34:04;;;;;;;38.42;21.70;;;;;;;15.73;79.27;100416.34;3587252;81;33841;-87
2022/10/14 16:39:05;;;;;;;36.80;22.67;;;;;;;15.69;79.47;100410.03;3616683;79;98919;-86
2022/10/14 16:44:06;;;;;;;40.40;24.10;;;;;;;15.65;79.54;100406.50;3663435;79;29234;-86
2022/10/14 16:49:07;;;;;;;42.75;26.20;;;;;;;15.61;79.73;100401.61;3642288;79;99297;-87
2022/10/14 16:54:09;;;;;;;38.17;23.40;;;;;;;15.57;79.81;100400.84;3647636;79;27725;-87
2022/10/14 16:59:12;;;;;;;36.90;24.83;;;;;;;15.52;80.06;100390.78;3640971;79;99198;-86
2022/10/14 17:04:14;;;;;;;35.00;23.22;;;;;;;15.43;80.25;100390.48;3641151;79;34770;-87
2022/10/14 17:09:16;;;;;;;35.23;22.22;;;;;;;15.35;80.60;100381.44;3634520;79;98986;-86
2022/10/14 17:14:23;;;;;;;36.73;22.62;;;;;;;15.31;80.74;100382.64;3653027;79;35961;-88
2022/10/14 17:19:23;;;;;;;42.50;24.63;;;;;;;15.25;80.93;100383.67;3629574;79;99325;-88
2022/10/14 17:24:25;;;;;;;38.80;24.07;;;;;;;15.17;81.28;100380.78;3651427;79;31948;-87
2022/10/14 17:29:27;;;;;;;47.37;28.67;;;;;;;15.11;81.48;100370.53;3633816;79;99053;-87
2022/10/14 17:34:30;;;;;;;37.70;22.87;;;;;;;15.04;81.79;100371.37;3663645;79;34805;-88
2022/10/14 17:39:31;;;;;;;41.10;25.62;;;;;;;14.96;81.95;100375.41;3641661;79;99168;-87
2022/10/14 17:44:32;;;;;;;39.60;25.77;;;;;;;14.87;82.10;100365.36;3643117;79;34453;-88
2022/10/14 17:49:33;;;;;;;40.65;27.52;;;;;;;14.80;82.32;100369.58;3642435;79;98977;-88
2022/10/14 17:54:33;;;;;;;42.70;27.50;;;;;;;14.73;82.53;100371.02;3650087;79;26359;-87
2022/10/14 17:59:34;;;;;;;43.98;28.02;;;;;;;14.65;82.76;100365.32;3641143;79;98924;-88
2022/10/14 18:04:36;;;;;;;49.60;31.83;;;;;;;14.57;82.98;100365.19;3646441;79;25809;-87
2022/10/14 18:09:37;;;;;;;65.10;38.73;;;;;;;14.49;83.17;100355.95;3648834;79;99235;-87
2022/10/14 18:14:39;;;;;;;64.23;43.63;;;;;;;14.42;83.43;100351.23;3647727;79;33152;-87
2022/10/14 18:19:41;;;;;;;54.67;36.33;;;;;;;14.36;83.58;100345.92;3645466;78;98916;-87
2022/10/14 18:24:42;;;;;;;48.98;33.90;;;;;;;14.31;83.80;100353.27;3654801;79;32995;-87
2022/10/14 18:29:43;;;;;;;49.57;33.33;;;;;;;14.28;83.89;100352.67;3624558;79;98797;-87
2022/10/14 18:34:44;;;;;;;52.20;33.73;;;;;;;14.23;84.12;100350.94;3656769;79;26730;-87
2022/10/14 18:39:45;;;;;;;48.97;33.33;;;;;;;14.19;84.39;100352.89;3638923;79;98758;-87
2022/10/14 18:44:46;;;;;;;50.40;31.20;;;;;;;14.16;84.68;100350.34;3649505;79;26403;-87
2022/10/14 18:49:48;;;;;;;40.17;27.62;;;;;;;14.13;84.85;100347.01;3638718;79;99225;-87
2022/10/14 18:54:49;;;;;;;43.80;27.58;;;;;;;14.09;85.03;100344.84;3586666;81;33063;-88
2022/10/14 18:59:50;;;;;;;45.60;27.87;;;;;;;14.06;85.35;100344.25;3648638;79;99174;-88
2022/10/14 19:04:53;;;;;;;42.97;28.33;;;;;;;14.04;85.48;100353.56;3648403;79;28641;-87
2022/10/14 19:09:53;;;;;;;44.35;29.25;;;;;;;14.00;85.78;100347.24;3651269;79;98901;-88
2022/10/14 19:14:54;;;;;;;49.87;31.43;;;;;;;13.99;86.04;100351.20;3658896;79;30596;-89
2022/10/14 19:19:58;;;;;;;54.70;33.27;;;;;;;13.94;86.23;100341.13;3655460;79;98676;-88
2022/10/14 19:24:59;;;;;;;49.93;34.33;;;;;;;13.89;86.38;100334.05;3665351;79;32555;-88
2022/10/14 19:30:00;;;;;;;50.60;32.80;;;;;;;13.87;86.48;100340.59;3658641;79;98864;-88
2022/10/14 19:35:01;;;;;;;53.93;37.10;;;;;;;13.82;86.56;100334.08;3656645;79;26991;-86
2022/10/14 19:40:02;;;;;;;54.90;37.97;;;;;;;13.76;86.73;100326.59;3654437;78;98996;-87
2022/10/14 19:45:03;;;;;;;50.47;33.10;;;;;;;13.73;86.84;100332.94;3660997;79;26021;-87
2022/10/14 19:50:05;;;;;;;52.50;32.93;;;;;;;13.66;86.86;100326.83;3645805;78;99049;-87
2022/10/14 19:55:07;;;;;;;48.63;30.17;;;;;;;13.61;87.00;100327.23;3663579;79;27663;-89
2022/10/14 20:00:10;;;;;;;47.57;29.97;;;;;;;13.54;87.26;100316.20;3613646;79;98692;-88
2022/10/14 20:05:11;;;;;;;48.45;31.95;;;;;;;13.48;87.40;100318.37;3593663;79;32446;-88
2022/10/14 20:10:12;;;;;;;53.23;30.43;;;;;;;13.41;87.56;100319.79;3584290;79;98732;-88
2022/10/14 20:15:13;;;;;;;49.43;30.57;;;;;;;13.33;87.69;100314.86;3586975;79;29389;-88
2022/10/14 20:20:14;;;;;;;45.43;27.53;;;;;;;13.24;87.83;100317.23;3575741;81;99066;-86
2022/10/14 20:25:15;;;;;;;59.43;33.00;;;;;;;13.19;87.98;100313.49;3580705;79;26863;-88
2022/10/14 20:30:16;;;;;;;57.87;33.33;;;;;;;13.13;88.02;100305.41;3437793;83;99189;-88
2022/10/14 20:35:17;;;;;;;62.57;33.60;;;;;;;13.10;88.26;100309.56;3449701;84;25973;-88
2022/10/14 20:40:17;;;;;;;57.27;34.13;;;;;;;13.04;88.44;100298.72;3441267;84;99058;-88
2022/10/14 20:45:18;;;;;;;56.23;32.17;;;;;;;13.00;88.50;100302.06;3453060;84;26284;-87
2022/10/14 20:50:20;;;;;;;50.15;30.27;;;;;;;12.96;88.63;100303.45;3437233;84;99157;-87
2022/10/14 20:55:21;;;;;;;44.27;28.67;;;;;;;12.92;88.97;100308.77;3456446;82;26102;-87
2022/10/14 21:00:21;;;;;;;46.60;29.40;;;;;;;12.89;89.11;100306.78;3504184;82;99143;-87
2022/10/14 21:05:22;;;;;;;41.00;27.43;;;;;;;12.86;89.45;100304.83;3565285;81;26389;-87
2022/10/14 21:10:23;;;;;;;53.53;31.73;;;;;;;12.83;89.62;100298.11;3636016;79;99095;-87
2022/10/14 21:15:25;;;;;;;49.93;30.40;;;;;;;12.81;89.95;100307.98;3650166;79;33433;-88
2022/10/14 21:20:26;;;;;;;51.43;29.93;;;;;;;12.78;90.24;100294.94;3651630;79;98929;-87
2022/10/14 21:25:27;;;;;;;49.43;31.43;;;;;;;12.76;90.07;100295.94;3636513;79;33438;-88
2022/10/14 21:30:28;;;;;;;54.70;31.73;;;;;;;12.72;90.28;100281.34;3632728;79;99004;-88
2022/10/14 21:35:30;;;;;;;56.87;34.47;;;;;;;12.65;90.45;100272.45;3644183;79;33399;-87
2022/10/14 21:40:32;;;;;;;54.93;32.00;;;;;;;12.59;90.63;100261.61;3640283;79;98838;-88
2022/10/14 21:45:33;;;;;;;48.20;29.77;;;;;;;12.56;90.90;100253.33;3631158;79;33455;-88
2022/10/14 21:50:33;;;;;;;56.90;32.53;;;;;;;12.53;90.86;100263.19;3649174;79;98937;-87
2022/10/14 21:55:34;;;;;;;56.00;32.83;;;;;;;12.51;91.16;100258.66;3649909;79;33458;-88
2022/10/14 22:00:35;;;;;;;57.93;32.90;;;;;;;12.51;91.61;100259.23;3624694;79;99118;-87
2022/10/14 22:05:36;;;;;;;53.98;32.30;;;;;;;12.50;91.79;100263.98;3616445;79;32972;-88
2022/10/14 22:10:39;;;;;;;59.60;33.27;;;;;;;12.50;91.76;100254.91;3645796;79;99140;-88
2022/10/14 22:15:42;;;;;;;55.48;32.85;;;;;;;12.51;91.68;100256.48;3639803;79;33588;-87
2022/10/14 22:20:43;;;;;;;50.78;32.45;;;;;;;12.48;92.03;100245.63;3592588;79;99397;-87
2022/10/14 22:25:43;;;;;;;53.37;32.23;;;;;;;12.51;92.04;100241.30;3649780;79;31604;-87
2022/10/14 22:30:44;;;;;;;52.20;32.17;;;;;;;12.51;92.15;100239.92;3622297;79;99261;-88
2022/10/14 22:35:45;;;;;;;60.05;33.35;;;;;;;12.51;92.12;100234.39;3618896;79;31893;-87
2022/10/14 22:40:46;;;;;;;50.33;31.70;;;;;;;12.50;92.22;100229.48;3623407;79;99134;-88
2022/10/14 22:45:46;;;;;;;52.43;34.63;;;;;;;12.48;92.14;100222.78;3613652;79;31619;-87
2022/10/14 22:50:47;;;;;;;60.67;38.07;;;;;;;12.43;91.65;100225.94;3622645;79;98662;-87
2022/10/14 22:55:52;;;;;;;54.70;36.05;;;;;;;12.37;92.04;100222.76;3645320;79;31925;-88
2022/10/14 23:00:54;;;;;;;51.42;34.55;;;;;;;12.30;92.06;100220.58;3638090;79;98750;-87
2022/10/14 23:05:58;;;;;;;61.50;39.05;;;;;;;12.02;92.02;100188.83;3633684;79;31845;-88
2022/10/14 23:11:01;;;;;;;58.73;38.13;;;;;;;12.02;92.02;100188.83;3611175;79;98566;-86
2022/10/14 23:16:05;;;;;;;54.85;35.50;;;;;;;12.07;92.58;100212.69;3650213;79;31625;-87
2022/10/14 23:21:22;;;;;;;65.95;43.85;;;;;;;11.99;92.68;100197.30;3631782;79;31928;-87